This is the latest recevied weather packets stored in our database for station/object KO4APQ. If no packets are shown the sender has not sent any weather packets the latest 10 day(s).
| Time | Temp. | Humidity | Pressure | Rain* | Wind** | Luminosity | Snow |
|---|---|---|---|---|---|---|---|
| 1777429627 | 16.11° C | 93% | 1018.7 hPa | 0 mm | - | 0 W/m² | - |
| 1777428714 | 16.67° C | 92% | 1018.5 hPa | 0 mm | - | 0 W/m² | - |
| 1777428410 | 16.67° C | 92% | 1018.7 hPa | 0 mm | - | 0 W/m² | - |
| 1777424764 | 16.67° C | 92% | 1018.8 hPa | 0 mm | - | 0 W/m² | - |
| 1777416260 | 17.78° C | 84% | 1018.4 hPa | 0 mm | - | 156 W/m² | - |
| 1777414744 | 17.78° C | 83% | 1018.3 hPa | 0 mm | - | 160 W/m² | - |
| 1777413531 | 18.33° C | 81% | 1018.5 hPa | 0 mm | - | 176 W/m² | - |
| 1777408682 | 18.89° C | 77% | 1019.4 hPa | 0 mm | - | 676 W/m² | - |
| 1777407773 | 18.33° C | 79% | 1020.1 hPa | 0 mm | - | 786 W/m² | - |
| 1777407469 | 18.33° C | 80% | 1020.4 hPa | 0 mm | - | 433 W/m² | - |
| 1777406859 | 17.78° C | 81% | 1020.2 hPa | 0 mm | - | 383 W/m² | - |
| 1777406250 | 17.22° C | 83% | 1020.1 hPa | 0 mm | - | 438 W/m² | - |
| 1777405039 | 16.67° C | 83% | 1020.7 hPa | 0 mm | - | 204 W/m² | - |
| 1777404733 | 16.67° C | 83% | 1020.7 hPa | 0 mm | - | 190 W/m² | - |
| 1777403522 | 16.67° C | 82% | 1021.2 hPa | 0 mm | - | 338 W/m² | - |
| 1777403216 | 16.67° C | 82% | 1021.4 hPa | 0 mm | - | 240 W/m² | - |
| 1777402608 | 16.67° C | 83% | 1021.4 hPa | 0 mm | - | 226 W/m² | - |
| 1777401705 | 16.11° C | 84% | 1021.6 hPa | 0 mm | - | 397 W/m² | - |
| 1777401402 | 16.67° C | 83% | 1021.7 hPa | 0 mm | - | 332 W/m² | - |
| 1777400186 | 16.67° C | 84% | 1022.3 hPa | 0 mm | - | 227 W/m² | - |
| 1777399882 | 16.11° C | 85% | 1022.4 hPa | 0 mm | - | 256 W/m² | - |
| 1777399580 | 16.11° C | 84% | 1022.5 hPa | 0 mm | - | 383 W/m² | - |
| 1777399277 | 16.11° C | 86% | 1022.5 hPa | 0 mm | - | 398 W/m² | - |
| 1777397762 | 16.11° C | 85% | 1022.7 hPa | 0 mm | - | 271 W/m² | - |
| 1777397457 | 16.11° C | 85% | 1022.9 hPa | 0 mm | - | 192 W/m² | - |
* Rain latest hour (hover to see other rain measurements)
** Current wind speed in m/s (hover to see current wind gust speed)